Time,TemperatureF,DewpointF,PressureIn,WindDirection,WindDirectionDegrees,WindSpeedMPH,WindSpeedGustMPH,Humidity,HourlyPrecipIn,Conditions,Clouds,dailyrainin,SolarRadiationWatts/m^2,SoftwareType,DateUTC
2013-04-15 00:00:00,59.4,41.3,29.86,East,90,2.0,9.0,51,0.00,,---,0.00,0.00,VWS V14.01,2013-04-15 04:00:00,
2013-04-15 00:02:00,59.4,41.3,29.86,East,94,2.0,6.0,51,0.00,,---,0.00,0.00,VWS V14.01,2013-04-15 04:02:00,
2013-04-15 00:07:00,59.3,41.2,29.86,ENE,76,0.0,6.0,51,0.00,,---,0.00,0.00,VWS V14.01,2013-04-15 04:07:00,
2013-04-15 00:12:00,59.1,41.0,29.85,ENE,57,1.0,6.0,51,0.00,,---,0.00,0.00,VWS V14.01,2013-04-15 04:12:00,
2013-04-15 00:17:00,58.9,41.3,29.85,ENE,58,0.0,6.0,52,0.00,,---,0.00,0.00,VWS V14.01,2013-04-15 04:17:00,
2013-04-15 00:22:00,58.7,41.1,29.86,ENE,75,0.0,6.0,52,0.00,,---,0.00,0.00,VWS V14.01,2013-04-15 04:22:00,
2013-04-15 00:27:00,58.5,41.5,29.85,ENE,74,0.0,6.0,53,0.00,,---,0.00,0.00,VWS V14.01,2013-04-15 04:27:00,
2013-04-15 00:30:00,58.4,41.3,29.85,ENE,74,0.0,6.0,53,0.00,,---,0.00,0.00,VWS V14.01,2013-04-15 04:30:00,
2013-04-15 00:33:00,58.2,41.7,29.85,ENE,74,0.0,1.0,54,0.00,,---,0.00,0.00,VWS V14.01,2013-04-15 04:33:00,
2013-04-15 00:38:00,57.9,41.4,29.85,ENE,74,0.0,1.0,54,0.00,,---,0.00,0.00,VWS V14.01,2013-04-15 04:38:00,
2013-04-15 00:43:00,57.7,41.2,29.86,ENE,74,0.0,1.0,54,0.00,,---,0.00,0.00,VWS V14.01,2013-04-15 04:43:00,
2013-04-15 00:47:00,57.5,41.5,29.86,ENE,74,0.0,1.0,55,0.00,,---,0.00,0.00,VWS V14.01,2013-04-15 04:47:00,
2013-04-15 00:53:00,57.3,42.7,29.86,ENE,74,1.0,1.0,58,0.00,,---,0.00,0.00,VWS V14.01,2013-04-15 04:53:00,
2013-04-15 00:58:00,56.9,41.8,29.86,ENE,74,0.0,1.0,57,0.00,,---,0.00,0.00,VWS V14.01,2013-04-15 04:58:00,
2013-04-15 01:00:00,56.8,42.2,29.86,ENE,74,0.0,1.0,58,0.00,,---,0.00,0.00,VWS V14.01,2013-04-15 05:00:00,
2013-04-15 01:03:00,56.6,41.6,29.86,ENE,74,0.0,0.0,57,0.00,,---,0.00,0.00,VWS V14.01,2013-04-15 05:03:00,
2013-04-15 01:08:00,56.3,41.3,29.86,ENE,74,0.0,0.0,57,0.00,,---,0.00,0.00,VWS V14.01,2013-04-15 05:08:00,
2013-04-15 01:13:00,56.0,42.3,29.86,ENE,74,0.0,0.0,60,0.00,,---,0.00,0.00,VWS V14.01,2013-04-15 05:13:00,
2013-04-15 01:18:00,55.8,41.7,29.86,ENE,74,0.0,0.0,59,0.00,,---,0.00,0.00,VWS V14.01,2013-04-15 05:18:00,
2013-04-15 01:23:00,55.5,41.4,29.86,ENE,74,0.0,0.0,59,0.00,,---,0.00,0.00,VWS V14.01,2013-04-15 05:23:00,
2013-04-15 01:28:00,55.1,41.5,29.86,ENE,74,0.0,1.0,60,0.00,,---,0.00,0.00,VWS V14.01,2013-04-15 05:28:00,
2013-04-15 01:30:00,55.0,41.8,29.86,ENE,74,0.0,1.0,61,0.00,,---,0.00,0.00,VWS V14.01,2013-04-15 05:30:00,
2013-04-15 01:33:00,54.8,42.0,29.86,ENE,74,0.0,0.0,62,0.00,,---,0.00,0.00,VWS V14.01,2013-04-15 05:33:00,
2013-04-15 01:38:00,54.4,42.1,29.86,ENE,74,0.0,0.0,63,0.00,,---,0.00,0.00,VWS V14.01,2013-04-15 05:38:00,
2013-04-15 01:43:00,54.1,41.4,29.86,ENE,74,0.0,0.0,62,0.00,,---,0.00,0.00,VWS V14.01,2013-04-15 05:43:00,
2013-04-15 01:48:00,53.7,41.4,29.86,ENE,74,0.0,1.0,63,0.00,,---,0.00,0.00,VWS V14.01,2013-04-15 05:48:00,
2013-04-15 01:53:00,53.5,42.0,29.85,ENE,74,0.0,1.0,65,0.00,,---,0.00,0.00,VWS V14.01,2013-04-15 05:53:00,
2013-04-15 01:58:00,53.2,41.8,29.86,ENE,74,0.0,1.0,65,0.00,,---,0.00,0.00,VWS V14.01,2013-04-15 05:58:00,
2013-04-15 02:00:00,53.1,41.3,29.86,ENE,74,0.0,1.0,64,0.00,,---,0.00,0.00,VWS V14.01,2013-04-15 06:00:00,
2013-04-15 02:03:00,53.0,40.8,29.85,SE,139,3.0,3.0,63,0.00,,---,0.00,0.00,VWS V14.01,2013-04-15 06:03:00,
2013-04-15 02:08:00,52.9,42.6,29.86,SSW,202,1.0,3.0,68,0.00,,---,0.00,0.00,VWS V14.01,2013-04-15 06:08:00,
2013-04-15 02:13:00,52.5,42.3,29.85,SSW,202,1.0,3.0,68,0.00,,---,0.00,0.00,VWS V14.01,2013-04-15 06:13:00,
2013-04-15 02:18:00,52.2,42.0,29.85,SSW,202,0.0,3.0,68,0.00,,---,0.00,0.00,VWS V14.01,2013-04-15 06:18:00,
2013-04-15 02:23:00,52.0,41.4,29.85,SSW,202,0.0,3.0,67,0.00,,---,0.00,0.00,VWS V14.01,2013-04-15 06:23:00,
2013-04-15 02:28:00,51.9,41.7,29.85,SSW,202,0.0,3.0,68,0.00,,---,0.00,0.00,VWS V14.01,2013-04-15 06:28:00,
2013-04-15 02:30:00,51.8,42.0,29.85,SSW,202,0.0,3.0,69,0.00,,---,0.00,0.00,VWS V14.01,2013-04-15 06:30:00,
2013-04-15 02:33:00,51.8,42.7,29.85,SSW,202,0.0,0.0,71,0.00,,---,0.00,0.00,VWS V14.01,2013-04-15 06:33:00,
2013-04-15 02:38:00,51.6,42.5,29.84,SSW,202,0.0,0.0,71,0.00,,---,0.00,0.00,VWS V14.01,2013-04-15 06:38:00,
2013-04-15 02:43:00,51.3,42.6,29.84,SSW,202,0.0,0.0,72,0.00,,---,0.00,0.00,VWS V14.01,2013-04-15 06:43:00,
2013-04-15 02:48:00,51.0,42.3,29.85,SSW,202,0.0,0.0,72,0.00,,---,0.00,0.00,VWS V14.01,2013-04-15 06:48:00,
2013-04-15 02:53:00,50.8,42.1,29.85,SSW,202,0.0,1.0,72,0.00,,---,0.00,0.00,VWS V14.01,2013-04-15 06:53:00,
2013-04-15 02:58:00,50.6,41.9,29.85,SSW,202,0.0,1.0,72,0.00,,---,0.00,0.00,VWS V14.01,2013-04-15 06:58:00,
2013-04-15 03:00:00,50.6,41.9,29.85,SSW,202,1.0,2.0,72,0.00,,---,0.00,0.00,VWS V14.01,2013-04-15 07:00:00,
2013-04-15 03:03:00,50.4,41.7,29.85,SSW,202,0.0,1.0,72,0.00,,---,0.00,0.00,VWS V14.01,2013-04-15 07:03:00,
2013-04-15 03:30:00,49.7,41.0,29.86,SSW,202,0.0,1.0,72,0.00,,---,0.00,0.00,VWS V14.01,2013-04-15 07:30:00,
2013-04-15 03:41:00,49.7,41.0,29.85,SSW,202,0.0,1.0,72,0.00,,---,0.00,0.00,VWS V14.01,2013-04-15 07:41:00,
2013-04-15 03:42:00,49.7,41.0,29.85,SSW,202,0.0,1.0,72,0.00,,---,0.00,0.00,VWS V14.01,2013-04-15 07:42:00,
2013-04-15 03:47:00,49.9,40.9,29.86,SSW,202,0.0,1.0,71,0.00,,---,0.00,0.00,VWS V14.01,2013-04-15 07:47:00,
2013-04-15 03:48:00,49.9,40.9,29.86,SSW,202,0.0,1.0,71,0.00,,---,0.00,0.00,VWS V14.01,2013-04-15 07:48:00,
2013-04-15 03:53:00,50.0,41.0,29.86,SSW,202,0.0,1.0,71,0.00,,---,0.00,0.00,VWS V14.01,2013-04-15 07:53:00,
2013-04-15 03:58:00,50.0,41.3,29.86,SSW,196,0.0,2.0,72,0.00,,---,0.00,0.00,VWS V14.01,2013-04-15 07:58:00,
2013-04-15 04:00:00,50.0,41.3,29.86,South,180,5.0,6.0,72,0.00,,---,0.00,0.00,VWS V14.01,2013-04-15 08:00:00,
2013-04-15 04:03:00,50.1,40.7,29.86,South,187,0.0,5.0,70,0.00,,---,0.00,0.00,VWS V14.01,2013-04-15 08:03:00,
2013-04-15 04:08:00,50.7,41.7,29.86,WSW,248,0.0,5.0,71,0.00,,---,0.00,0.00,VWS V14.01,2013-04-15 08:08:00,
2013-04-15 04:14:00,50.8,42.1,29.87,WSW,248,0.0,5.0,72,0.00,,---,0.00,0.00,VWS V14.01,2013-04-15 08:14:00,
2013-04-15 04:19:00,50.8,41.8,29.87,SSE,148,1.0,5.0,71,0.00,,---,0.00,0.00,VWS V14.01,2013-04-15 08:19:00,
2013-04-15 04:24:00,51.5,41.7,29.87,SE,141,4.0,6.0,69,0.00,,---,0.00,0.00,VWS V14.01,2013-04-15 08:24:00,
2013-04-15 04:29:00,52.7,42.5,29.87,South,173,3.0,10.0,68,0.00,,---,0.00,0.00,VWS V14.01,2013-04-15 08:29:00,
2013-04-15 04:30:00,53.0,42.3,29.87,South,174,2.0,10.0,67,0.00,,---,0.00,0.00,VWS V14.01,2013-04-15 08:30:00,
2013-04-15 04:34:00,53.8,42.7,29.88,South,180,9.0,9.0,66,0.00,,---,0.00,0.00,VWS V14.01,2013-04-15 08:34:00,
2013-04-15 04:35:00,54.0,42.9,29.88,SSE,164,5.0,9.0,66,0.00,,---,0.00,0.00,VWS V14.01,2013-04-15 08:35:00,
2013-04-15 04:40:00,55.0,43.5,29.88,South,173,4.0,9.0,65,0.00,,---,0.00,0.00,VWS V14.01,2013-04-15 08:40:00,
2013-04-15 04:45:00,55.8,43.4,29.88,South,176,2.0,9.0,63,0.00,,---,0.00,0.00,VWS V14.01,2013-04-15 08:45:00,
2013-04-15 04:50:00,56.2,43.8,29.88,South,186,5.0,9.0,63,0.00,,---,0.00,0.00,VWS V14.01,2013-04-15 08:50:00,
2013-04-15 04:55:00,56.5,43.7,29.88,SSW,195,3.0,9.0,62,0.00,,---,0.00,0.00,VWS V14.01,2013-04-15 08:55:00,
2013-04-15 05:00:00,56.7,43.8,29.89,SSW,200,3.0,9.0,62,0.00,,---,0.00,0.00,VWS V14.01,2013-04-15 09:00:00,
2013-04-15 05:05:00,56.9,43.6,29.89,South,175,2.0,9.0,61,0.00,,---,0.00,0.00,VWS V14.01,2013-04-15 09:05:00,
2013-04-15 05:10:00,57.1,43.8,29.89,SW,217,0.0,9.0,61,0.00,,---,0.00,0.00,VWS V14.01,2013-04-15 09:10:00,
2013-04-15 05:15:00,57.3,44.0,29.89,SSW,208,6.0,9.0,61,0.00,,---,0.00,0.00,VWS V14.01,2013-04-15 09:15:00,
2013-04-15 05:20:00,57.4,44.1,29.89,South,186,2.0,9.0,61,0.00,,---,0.00,0.00,VWS V14.01,2013-04-15 09:20:00,
2013-04-15 05:25:00,57.5,44.2,29.89,South,189,0.0,9.0,61,0.00,,---,0.00,0.00,VWS V14.01,2013-04-15 09:25:00,
2013-04-15 05:30:00,57.6,43.8,29.89,SE,130,1.0,9.0,60,0.00,,---,0.00,0.00,VWS V14.01,2013-04-15 09:30:00,
2013-04-15 05:35:00,57.7,43.9,29.89,SSE,161,0.0,4.0,60,0.00,,---,0.00,0.00,VWS V14.01,2013-04-15 09:35:00,
2013-04-15 05:40:00,57.7,43.9,29.90,SSE,162,1.0,4.0,60,0.00,,---,0.00,0.00,VWS V14.01,2013-04-15 09:40:00,
2013-04-15 05:45:00,57.7,43.9,29.90,SSE,162,2.0,4.0,60,0.00,,---,0.00,0.00,VWS V14.01,2013-04-15 09:45:00,
2013-04-15 05:50:00,57.7,43.9,29.89,SSE,162,0.0,4.0,60,0.00,,---,0.00,0.00,VWS V14.01,2013-04-15 09:50:00,
2013-04-15 05:55:00,57.6,43.8,29.90,South,169,0.0,4.0,60,0.00,,---,0.00,0.00,VWS V14.01,2013-04-15 09:55:00,
2013-04-15 06:00:00,57.5,43.7,29.90,South,169,0.0,4.0,60,0.00,,---,0.00,0.00,VWS V14.01,2013-04-15 10:00:00,
2013-04-15 06:05:00,57.4,44.1,29.90,South,169,0.0,1.0,61,0.00,,---,0.00,0.00,VWS V14.01,2013-04-15 10:05:00,
2013-04-15 06:10:00,57.3,44.0,29.90,South,169,0.0,4.0,61,0.00,,---,0.00,0.00,VWS V14.01,2013-04-15 10:10:00,
2013-04-15 06:15:00,57.1,43.8,29.90,South,169,1.0,4.0,61,0.00,,---,0.00,0.00,VWS V14.01,2013-04-15 10:15:00,
2013-04-15 06:20:00,56.9,44.0,29.90,South,169,1.0,4.0,62,0.00,,---,0.00,0.00,VWS V14.01,2013-04-15 10:20:00,
2013-04-15 06:25:00,56.9,44.5,29.90,South,169,1.0,4.0,63,0.00,,---,0.00,0.00,VWS V14.01,2013-04-15 10:25:00,
2013-04-15 06:30:00,56.8,44.3,29.90,South,169,0.0,0.0,63,0.00,,---,0.00,0.00,VWS V14.01,2013-04-15 10:30:00,
2013-04-15 06:35:00,56.7,44.3,29.90,South,169,0.0,3.0,63,0.00,,---,0.00,0.00,VWS V14.01,2013-04-15 10:35:00,
2013-04-15 06:40:00,56.6,44.6,29.91,South,169,0.0,3.0,64,0.00,,---,0.00,0.00,VWS V14.01,2013-04-15 10:40:00,
2013-04-15 06:45:00,56.4,44.4,29.91,South,169,1.0,3.0,64,0.00,,---,0.00,0.00,VWS V14.01,2013-04-15 10:45:00,
2013-04-15 06:50:00,56.3,44.7,29.91,SSE,164,1.0,3.0,65,0.00,,---,0.00,0.00,VWS V14.01,2013-04-15 10:50:00,
2013-04-15 06:55:00,56.2,44.6,29.91,SSE,164,0.0,3.0,65,0.00,,---,0.00,5.00,VWS V14.01,2013-04-15 10:55:00,
2013-04-15 07:00:00,56.1,44.5,29.91,SE,142,0.0,0.0,65,0.00,,---,0.00,9.00,VWS V14.01,2013-04-15 11:00:00,
2013-04-15 07:05:00,56.0,44.8,29.91,SE,146,1.0,2.0,66,0.00,,---,0.00,12.00,VWS V14.01,2013-04-15 11:05:00,
2013-04-15 07:10:00,55.8,44.6,29.91,South,171,0.0,3.0,66,0.00,,---,0.00,14.00,VWS V14.01,2013-04-15 11:10:00,
2013-04-15 07:15:00,55.7,44.9,29.91,South,171,0.0,3.0,67,0.00,,---,0.00,18.00,VWS V14.01,2013-04-15 11:15:00,
2013-04-15 07:20:00,55.7,44.9,29.91,SSE,157,1.0,4.0,67,0.00,,---,0.00,19.00,VWS V14.01,2013-04-15 11:20:00,
2013-04-15 07:25:00,55.6,44.8,29.91,SSE,157,2.0,4.0,67,0.00,,---,0.00,25.00,VWS V14.01,2013-04-15 11:25:00,
2013-04-15 07:30:00,55.7,45.3,29.92,ESE,105,0.0,0.0,68,0.00,,---,0.00,37.00,VWS V14.01,2013-04-15 11:30:00,
2013-04-15 07:35:00,56.0,45.6,29.92,ESE,117,1.0,7.0,68,0.00,,---,0.00,46.00,VWS V14.01,2013-04-15 11:35:00,
2013-04-15 07:40:00,56.3,45.9,29.92,South,185,6.0,7.0,68,0.00,,---,0.00,60.00,VWS V14.01,2013-04-15 11:40:00,
2013-04-15 07:45:00,56.6,46.2,29.93,SSW,195,0.0,7.0,68,0.00,,---,0.00,76.00,VWS V14.01,2013-04-15 11:45:00,
2013-04-15 07:50:00,56.9,46.5,29.93,South,190,1.0,7.0,68,0.00,,---,0.00,91.00,VWS V14.01,2013-04-15 11:50:00,
2013-04-15 07:55:00,57.4,46.5,29.93,ESE,111,1.0,9.0,67,0.00,,---,0.00,111.00,VWS V14.01,2013-04-15 11:55:00,
2013-04-15 08:00:00,57.8,46.9,29.93,ESE,111,1.0,9.0,67,0.00,,---,0.00,127.00,VWS V14.01,2013-04-15 12:00:00,
2013-04-15 08:01:00,57.8,46.9,29.93,SE,132,1.0,2.0,67,0.00,,---,0.00,130.00,VWS V14.01,2013-04-15 12:01:00,
2013-04-15 08:05:00,58.2,47.3,29.93,SSE,149,1.0,6.0,67,0.00,,---,0.00,148.00,VWS V14.01,2013-04-15 12:05:00,
2013-04-15 08:10:00,58.6,47.3,29.93,SSW,203,1.0,6.0,66,0.00,,---,0.00,171.00,VWS V14.01,2013-04-15 12:10:00,
2013-04-15 08:15:00,58.8,47.9,29.93,SSE,165,4.0,6.0,67,0.00,,---,0.00,186.00,VWS V14.01,2013-04-15 12:15:00,
2013-04-15 08:21:00,59.1,48.2,29.93,SSE,161,1.0,6.0,67,0.00,,---,0.00,207.00,VWS V14.01,2013-04-15 12:21:00,
2013-04-15 08:26:00,59.4,48.8,29.94,SSE,168,1.0,6.0,68,0.00,,---,0.00,229.00,VWS V14.01,2013-04-15 12:26:00,
2013-04-15 08:30:00,59.7,49.1,29.93,ESE,108,0.0,6.0,68,0.00,,---,0.00,244.00,VWS V14.01,2013-04-15 12:30:00,
2013-04-15 08:31:00,59.7,49.1,29.93,ESE,108,0.0,0.0,68,0.00,,---,0.00,251.00,VWS V14.01,2013-04-15 12:31:00,
2013-04-15 08:36:00,60.1,49.1,29.94,SE,128,4.0,5.0,67,0.00,,---,0.00,265.00,VWS V14.01,2013-04-15 12:36:00,
2013-04-15 08:41:00,60.5,49.1,29.94,South,171,0.0,8.0,66,0.00,,---,0.00,283.00,VWS V14.01,2013-04-15 12:41:00,
2013-04-15 08:46:00,60.7,49.3,29.94,SE,134,1.0,8.0,66,0.00,,---,0.00,302.00,VWS V14.01,2013-04-15 12:46:00,
2013-04-15 08:51:00,60.9,49.5,29.94,SE,145,0.0,10.0,66,0.00,,---,0.00,320.00,VWS V14.01,2013-04-15 12:51:00,
2013-04-15 08:56:00,61.1,49.7,29.93,SSE,162,1.0,11.0,66,0.00,,---,0.00,329.00,VWS V14.01,2013-04-15 12:56:00,
2013-04-15 09:00:00,61.1,49.7,29.93,SE,130,4.0,11.0,66,0.00,,---,0.00,352.00,VWS V14.01,2013-04-15 13:00:00,
2013-04-15 09:01:00,61.2,49.8,29.94,SSE,157,0.0,5.0,66,0.00,,---,0.00,355.00,VWS V14.01,2013-04-15 13:01:00,
2013-04-15 09:07:00,61.4,50.0,29.93,South,178,3.0,12.0,66,0.00,,---,0.00,373.00,VWS V14.01,2013-04-15 13:07:00,
2013-04-15 09:12:00,61.6,50.5,29.93,South,175,0.0,12.0,67,0.00,,---,0.00,401.00,VWS V14.01,2013-04-15 13:12:00,
2013-04-15 09:17:00,61.8,50.3,29.93,South,173,9.0,12.0,66,0.00,,---,0.00,264.00,VWS V14.01,2013-04-15 13:17:00,
2013-04-15 09:22:00,61.7,49.8,29.93,South,169,3.0,12.0,65,0.00,,---,0.00,199.00,VWS V14.01,2013-04-15 13:22:00,
2013-04-15 09:27:00,61.4,50.0,29.93,South,171,0.0,12.0,66,0.00,,---,0.00,214.00,VWS V14.01,2013-04-15 13:27:00,
2013-04-15 09:30:00,61.3,49.9,29.93,SSE,163,9.0,12.0,66,0.00,,---,0.00,272.00,VWS V14.01,2013-04-15 13:30:00,
2013-04-15 09:32:00,61.2,49.8,29.93,SE,127,3.0,14.0,66,0.00,,---,0.00,272.00,VWS V14.01,2013-04-15 13:32:00,
2013-04-15 09:37:00,61.2,50.2,29.93,ESE,120,4.0,14.0,67,0.00,,---,0.00,485.00,VWS V14.01,2013-04-15 13:37:00,
2013-04-15 09:42:00,61.6,51.0,29.93,South,174,3.0,14.0,68,0.00,,---,0.00,566.00,VWS V14.01,2013-04-15 13:42:00,
2013-04-15 09:47:00,61.9,50.8,29.93,SE,144,4.0,14.0,67,0.00,,---,0.00,473.00,VWS V14.01,2013-04-15 13:47:00,
2013-04-15 09:52:00,62.1,51.0,29.93,South,170,2.0,14.0,67,0.00,,---,0.00,374.00,VWS V14.01,2013-04-15 13:52:00,
2013-04-15 09:57:00,62.1,51.0,29.93,SSW,202,5.0,14.0,67,0.00,,---,0.00,264.00,VWS V14.01,2013-04-15 13:57:00,
2013-04-15 10:00:00,62.0,50.9,29.93,SSE,153,7.0,14.0,67,0.00,,---,0.00,237.00,VWS V14.01,2013-04-15 14:00:00,
2013-04-15 10:02:00,61.8,50.7,29.93,South,181,12.0,13.0,67,0.00,,---,0.00,197.00,VWS V14.01,2013-04-15 14:02:00,
2013-04-15 10:07:00,61.5,50.5,29.93,South,182,5.0,16.0,67,0.00,,---,0.00,227.00,VWS V14.01,2013-04-15 14:07:00,
2013-04-15 10:13:00,61.3,50.7,29.93,SSE,160,3.0,16.0,68,0.00,,---,0.00,288.00,VWS V14.01,2013-04-15 14:13:00,
2013-04-15 10:18:00,61.2,51.0,29.93,ESE,105,3.0,16.0,69,0.00,,---,0.00,396.00,VWS V14.01,2013-04-15 14:18:00,
2013-04-15 10:23:00,61.3,51.1,29.93,East,96,6.0,16.0,69,0.00,,---,0.00,295.00,VWS V14.01,2013-04-15 14:23:00,
2013-04-15 10:28:00,61.3,51.1,29.93,SE,142,11.0,16.0,69,0.00,,---,0.00,294.00,VWS V14.01,2013-04-15 14:28:00,
2013-04-15 10:30:00,61.3,51.1,29.93,SSE,150,2.0,16.0,69,0.00,,---,0.00,415.00,VWS V14.01,2013-04-15 14:30:00,
2013-04-15 10:33:00,61.4,51.5,29.94,SSW,203,9.0,11.0,70,0.00,,---,0.00,515.00,VWS V14.01,2013-04-15 14:33:00,
2013-04-15 10:38:00,61.7,51.4,29.94,SSE,161,6.0,11.0,69,0.00,,---,0.00,461.00,VWS V14.01,2013-04-15 14:38:00,
2013-04-15 10:43:00,62.0,51.3,29.94,SSW,198,7.0,12.0,68,0.00,,---,0.00,388.00,VWS V14.01,2013-04-15 14:43:00,
2013-04-15 10:48:00,62.1,51.8,29.95,SE,132,6.0,14.0,69,0.00,,---,0.00,250.00,VWS V14.01,2013-04-15 14:48:00,
2013-04-15 10:53:00,62.1,51.4,29.95,South,181,7.0,14.0,68,0.00,,---,0.00,183.00,VWS V14.01,2013-04-15 14:53:00,
2013-04-15 10:58:00,61.9,51.6,29.96,South,189,2.0,14.0,69,0.00,,---,0.00,167.00,VWS V14.01,2013-04-15 14:58:00,
2013-04-15 11:00:00,61.8,51.5,29.96,SSE,161,2.0,14.0,69,0.00,,---,0.00,174.00,VWS V14.01,2013-04-15 15:00:00,
2013-04-15 11:03:00,61.7,51.4,29.96,South,189,5.0,10.0,69,0.00,,---,0.00,183.00,VWS V14.01,2013-04-15 15:03:00,
2013-04-15 11:08:00,61.5,51.6,29.95,South,189,2.0,14.0,70,0.00,,---,0.00,214.00,VWS V14.01,2013-04-15 15:08:00,
2013-04-15 11:13:00,61.4,51.5,29.95,SSE,168,5.0,14.0,70,0.00,,---,0.00,255.00,VWS V14.01,2013-04-15 15:13:00,
2013-04-15 11:18:00,61.5,52.0,29.94,SE,129,7.0,14.0,71,0.00,,---,0.00,413.00,VWS V14.01,2013-04-15 15:18:00,
2013-04-15 11:23:00,61.6,51.7,29.94,ESE,107,4.0,14.0,70,0.00,,---,0.00,610.00,VWS V14.01,2013-04-15 15:23:00,
2013-04-15 11:28:00,62.2,52.7,29.94,SE,146,1.0,14.0,71,0.00,,---,0.00,682.00,VWS V14.01,2013-04-15 15:28:00,
2013-04-15 11:30:00,62.4,52.9,29.94,SE,142,3.0,14.0,71,0.00,,---,0.00,682.00,VWS V14.01,2013-04-15 15:30:00,
2013-04-15 11:34:00,62.7,52.8,29.94,SSE,165,4.0,15.0,70,0.00,,---,0.00,341.00,VWS V14.01,2013-04-15 15:34:00,
2013-04-15 11:39:00,62.7,52.4,29.94,South,171,0.0,15.0,69,0.00,,---,0.00,295.00,VWS V14.01,2013-04-15 15:39:00,
2013-04-15 11:44:00,62.6,52.7,29.94,SSE,165,4.0,15.0,70,0.00,,---,0.00,411.00,VWS V14.01,2013-04-15 15:44:00,
2013-04-15 11:49:00,62.6,52.7,29.94,SE,146,2.0,15.0,70,0.00,,---,0.00,721.00,VWS V14.01,2013-04-15 15:49:00,
2013-04-15 11:54:00,62.8,52.9,29.94,SW,220,11.0,15.0,70,0.00,,---,0.00,494.00,VWS V14.01,2013-04-15 15:54:00,
2013-04-15 11:59:00,63.2,53.7,29.94,South,188,3.0,16.0,71,0.00,,---,0.00,1039.00,VWS V14.01,2013-04-15 15:59:00,
2013-04-15 12:00:00,63.5,54.3,29.94,SSE,167,7.0,16.0,72,0.00,,---,0.00,1039.00,VWS V14.01,2013-04-15 16:00:00,
2013-04-15 12:04:00,63.9,54.3,29.93,SW,221,3.0,10.0,71,0.00,,---,0.00,1060.00,VWS V14.01,2013-04-15 16:04:00,
2013-04-15 12:09:00,64.6,53.8,29.93,SSE,152,6.0,11.0,68,0.00,,---,0.00,1037.00,VWS V14.01,2013-04-15 16:09:00,
2013-04-15 12:14:00,64.9,54.1,29.93,SSE,165,4.0,11.0,68,0.00,,---,0.00,381.00,VWS V14.01,2013-04-15 16:14:00,
2013-04-15 12:19:00,65.0,53.8,29.93,South,190,4.0,11.0,67,0.00,,---,0.00,496.00,VWS V14.01,2013-04-15 16:19:00,
2013-04-15 12:24:00,65.5,54.7,29.93,SE,136,6.0,11.0,68,0.00,,---,0.00,740.00,VWS V14.01,2013-04-15 16:24:00,
2013-04-15 12:29:00,65.5,53.8,29.93,South,179,1.0,11.0,66,0.00,,---,0.00,568.00,VWS V14.01,2013-04-15 16:29:00,
2013-04-15 12:30:00,65.6,54.4,29.93,SSW,200,3.0,11.0,67,0.00,,---,0.00,568.00,VWS V14.01,2013-04-15 16:30:00,
2013-04-15 12:34:00,65.6,54.8,29.93,SW,234,7.0,13.0,68,0.00,,---,0.00,1174.00,VWS V14.01,2013-04-15 16:34:00,
2013-04-15 12:39:00,65.6,54.0,29.93,WSW,240,7.0,14.0,66,0.00,,---,0.00,341.00,VWS V14.01,2013-04-15 16:39:00,
2013-04-15 12:44:00,65.6,54.8,29.93,WSW,248,10.0,14.0,68,0.00,,---,0.00,452.00,VWS V14.01,2013-04-15 16:44:00,
2013-04-15 12:49:00,65.5,54.3,29.93,WSW,240,8.0,14.0,67,0.00,,---,0.00,390.00,VWS V14.01,2013-04-15 16:49:00,
2013-04-15 12:54:00,65.6,54.8,29.93,South,188,5.0,14.0,68,0.00,,---,0.00,1148.00,VWS V14.01,2013-04-15 16:54:00,
2013-04-15 12:59:00,65.7,54.0,29.93,SSE,163,6.0,14.0,66,0.00,,---,0.00,397.00,VWS V14.01,2013-04-15 16:59:00,
2013-04-15 13:00:00,65.7,54.0,29.93,SSW,203,4.0,14.0,66,0.00,,---,0.00,397.00,VWS V14.01,2013-04-15 17:00:00,
2013-04-15 13:04:00,65.8,54.1,29.94,SSW,210,4.0,10.0,66,0.00,,---,0.00,355.00,VWS V14.01,2013-04-15 17:04:00,
2013-04-15 13:09:00,65.7,54.5,29.94,SSW,194,7.0,10.0,67,0.00,,---,0.00,309.00,VWS V14.01,2013-04-15 17:09:00,
2013-04-15 13:14:00,65.6,54.0,29.94,SSW,208,5.0,10.0,66,0.00,,---,0.00,448.00,VWS V14.01,2013-04-15 17:14:00,
2013-04-15 13:19:00,65.7,55.7,29.94,WSW,246,5.0,11.0,70,0.00,,---,0.00,1252.00,VWS V14.01,2013-04-15 17:19:00,
2013-04-15 13:21:00,65.8,55.4,29.94,SW,231,7.0,13.0,69,0.00,,---,0.00,1252.00,VWS V14.01,2013-04-15 17:21:00,
2013-04-15 13:25:00,66.2,55.3,29.94,SW,215,6.0,13.0,68,0.00,,---,0.00,473.00,VWS V14.01,2013-04-15 17:25:00,
2013-04-15 13:30:00,66.6,55.3,29.94,South,182,7.0,13.0,67,0.00,,---,0.00,517.00,VWS V14.01,2013-04-15 17:30:00,
2013-04-15 13:35:00,66.9,54.8,29.94,SSW,193,3.0,9.0,65,0.00,,---,0.00,383.00,VWS V14.01,2013-04-15 17:35:00,
2013-04-15 13:40:00,67.0,55.3,29.94,SW,222,5.0,10.0,66,0.00,,---,0.00,1192.00,VWS V14.01,2013-04-15 17:40:00,
2013-04-15 13:45:00,67.0,54.4,29.93,SW,223,5.0,11.0,64,0.00,,---,0.00,459.00,VWS V14.01,2013-04-15 17:45:00,
2013-04-15 13:50:00,67.0,54.9,29.93,SSW,198,3.0,11.0,65,0.00,,---,0.00,461.00,VWS V14.01,2013-04-15 17:50:00,
2013-04-15 13:55:00,67.1,55.8,29.93,SW,220,4.0,11.0,67,0.00,,---,0.00,439.00,VWS V14.01,2013-04-15 17:55:00,
2013-04-15 14:00:00,67.0,54.4,29.93,WSW,241,4.0,7.0,64,0.00,,---,0.00,274.00,VWS V14.01,2013-04-15 18:00:00,
2013-04-15 14:05:00,66.8,54.7,29.93,SW,233,5.0,9.0,65,0.00,,---,0.00,192.00,VWS V14.01,2013-04-15 18:05:00,
2013-04-15 14:10:00,66.6,54.1,29.93,SSW,210,4.0,10.0,64,0.00,,---,0.00,163.00,VWS V14.01,2013-04-15 18:10:00,
2013-04-15 14:15:00,66.3,54.2,29.94,SW,221,3.0,10.0,65,0.00,,---,0.00,171.00,VWS V14.01,2013-04-15 18:15:00,
2013-04-15 14:20:00,66.2,54.1,29.94,SW,215,5.0,10.0,65,0.00,,---,0.00,209.00,VWS V14.01,2013-04-15 18:20:00,
2013-04-15 14:26:00,66.0,53.9,29.94,West,260,5.0,10.0,65,0.00,,---,0.00,246.00,VWS V14.01,2013-04-15 18:26:00,
2013-04-15 14:29:00,66.0,54.7,29.93,SW,220,5.0,10.0,67,0.00,,---,0.00,258.00,VWS V14.01,2013-04-15 18:29:00,
2013-04-15 14:30:00,66.0,54.3,29.94,SW,231,9.0,10.0,66,0.00,,---,0.00,239.00,VWS V14.01,2013-04-15 18:30:00,
2013-04-15 14:35:00,66.0,54.7,29.93,WSW,246,5.0,7.0,67,0.00,,---,0.00,190.00,VWS V14.01,2013-04-15 18:35:00,
2013-04-15 14:40:00,65.9,54.7,29.93,SW,232,0.0,7.0,67,0.00,,---,0.00,214.00,VWS V14.01,2013-04-15 18:40:00,
2013-04-15 14:45:00,66.0,54.3,29.93,South,178,4.0,7.0,66,0.00,,---,0.00,388.00,VWS V14.01,2013-04-15 18:45:00,
2013-04-15 14:50:00,66.3,55.4,29.93,SW,219,5.0,10.0,68,0.00,,---,0.00,526.00,VWS V14.01,2013-04-15 18:50:00,
2013-04-15 14:55:00,67.1,56.6,29.92,SW,217,6.0,12.0,69,0.00,,---,0.00,1032.00,VWS V14.01,2013-04-15 18:55:00,
2013-04-15 15:00:00,67.8,56.0,29.92,SW,232,4.0,12.0,66,0.00,,---,0.00,1076.00,VWS V14.01,2013-04-15 19:00:00,
2013-04-15 15:05:00,68.2,55.6,29.92,SSW,202,6.0,13.0,64,0.00,,---,0.00,323.00,VWS V14.01,2013-04-15 19:05:00,
2013-04-15 15:10:00,68.1,55.5,29.92,SSW,194,3.0,13.0,64,0.00,,---,0.00,359.00,VWS V14.01,2013-04-15 19:10:00,
2013-04-15 15:15:00,67.9,55.7,29.92,South,184,1.0,13.0,65,0.00,,---,0.00,295.00,VWS V14.01,2013-04-15 19:15:00,
2013-04-15 15:20:00,67.9,55.3,29.91,SSW,202,10.0,13.0,64,0.00,,---,0.00,330.00,VWS V14.01,2013-04-15 19:20:00,
2013-04-15 15:25:00,67.8,55.2,29.91,South,183,1.0,13.0,64,0.00,,---,0.00,431.00,VWS V14.01,2013-04-15 19:25:00,
2013-04-15 15:30:00,68.0,55.8,29.91,SW,236,6.0,13.0,65,0.00,,---,0.00,448.00,VWS V14.01,2013-04-15 19:30:00,
2013-04-15 15:35:00,68.0,54.5,29.91,SSW,200,4.0,10.0,62,0.00,,---,0.00,364.00,VWS V14.01,2013-04-15 19:35:00,
2013-04-15 15:40:00,68.1,55.0,29.91,SSW,201,6.0,12.0,63,0.00,,---,0.00,315.00,VWS V14.01,2013-04-15 19:40:00,
2013-04-15 15:45:00,67.9,54.8,29.91,WSW,242,5.0,12.0,63,0.00,,---,0.00,325.00,VWS V14.01,2013-04-15 19:45:00,
2013-04-15 15:50:00,67.9,55.3,29.91,South,173,2.0,12.0,64,0.00,,---,0.00,353.00,VWS V14.01,2013-04-15 19:50:00,
2013-04-15 15:56:00,67.9,55.3,29.91,WSW,242,5.0,12.0,64,0.00,,---,0.00,311.00,VWS V14.01,2013-04-15 19:56:00,
2013-04-15 15:57:00,67.9,55.3,29.91,SW,236,9.0,12.0,64,0.00,,---,0.00,338.00,VWS V14.01,2013-04-15 19:57:00,
2013-04-15 16:00:00,68.0,55.4,29.91,SSW,198,4.0,12.0,64,0.00,,---,0.00,380.00,VWS V14.01,2013-04-15 20:00:00,
2013-04-15 16:02:00,68.0,55.0,29.90,South,179,1.0,10.0,63,0.00,,---,0.00,355.00,VWS V14.01,2013-04-15 20:02:00,
2013-04-15 16:03:00,68.0,55.0,29.90,SW,223,6.0,10.0,63,0.00,,---,0.00,343.00,VWS V14.01,2013-04-15 20:03:00,
2013-04-15 16:08:00,68.1,55.0,29.90,SW,217,3.0,10.0,63,0.00,,---,0.00,427.00,VWS V14.01,2013-04-15 20:08:00,
2013-04-15 16:13:00,68.3,55.2,29.90,South,175,4.0,10.0,63,0.00,,---,0.00,439.00,VWS V14.01,2013-04-15 20:13:00,
2013-04-15 16:18:00,68.4,54.9,29.90,SSW,212,5.0,10.0,62,0.00,,---,0.00,338.00,VWS V14.01,2013-04-15 20:18:00,
2013-04-15 16:23:00,68.4,55.3,29.90,SW,215,4.0,10.0,63,0.00,,---,0.00,250.00,VWS V14.01,2013-04-15 20:23:00,
2013-04-15 16:28:00,68.4,55.8,29.90,SW,225,5.0,10.0,64,0.00,,---,0.00,123.00,VWS V14.01,2013-04-15 20:28:00,
2013-04-15 16:30:00,68.3,55.2,29.90,SSW,209,6.0,10.0,63,0.00,,---,0.00,90.00,VWS V14.01,2013-04-15 20:30:00,
2013-04-15 16:33:00,68.2,54.7,29.90,SW,216,5.0,7.0,62,0.00,,---,0.00,100.00,VWS V14.01,2013-04-15 20:33:00,
2013-04-15 16:38:00,68.0,54.5,29.90,South,171,1.0,8.0,62,0.00,,---,0.00,178.00,VWS V14.01,2013-04-15 20:38:00,
2013-04-15 16:43:00,67.9,54.8,29.90,SSW,212,2.0,8.0,63,0.00,,---,0.00,178.00,VWS V14.01,2013-04-15 20:43:00,
2013-04-15 16:48:00,67.8,55.2,29.90,South,187,1.0,8.0,64,0.00,,---,0.00,214.00,VWS V14.01,2013-04-15 20:48:00,
2013-04-15 16:53:00,67.8,55.2,29.90,South,184,2.0,9.0,64,0.00,,---,0.00,297.00,VWS V14.01,2013-04-15 20:53:00,
2013-04-15 16:58:00,67.9,55.7,29.90,SSW,211,4.0,9.0,65,0.00,,---,0.00,417.00,VWS V14.01,2013-04-15 20:58:00,
2013-04-15 17:00:00,68.1,55.5,29.90,South,177,4.0,10.0,64,0.00,,---,0.00,311.00,VWS V14.01,2013-04-15 21:00:00,
2013-04-15 17:03:00,68.2,55.1,29.89,SSW,211,5.0,10.0,63,0.00,,---,0.00,323.00,VWS V14.01,2013-04-15 21:03:00,
2013-04-15 17:08:00,68.5,55.9,29.89,South,191,8.0,10.0,64,0.00,,---,0.00,371.00,VWS V14.01,2013-04-15 21:08:00,
2013-04-15 17:13:00,68.6,55.5,29.89,SSW,205,3.0,10.0,63,0.00,,---,0.00,360.00,VWS V14.01,2013-04-15 21:13:00,
2013-04-15 17:18:00,68.8,55.7,29.89,SSE,157,3.0,10.0,63,0.00,,---,0.00,309.00,VWS V14.01,2013-04-15 21:18:00,
2013-04-15 17:23:00,68.9,55.4,29.89,SSE,163,8.0,18.0,62,0.00,,---,0.00,334.00,VWS V14.01,2013-04-15 21:23:00,
2013-04-15 17:28:00,69.0,55.0,29.89,SE,128,5.0,18.0,61,0.00,,---,0.00,364.00,VWS V14.01,2013-04-15 21:28:00,
2013-04-15 17:30:00,69.0,55.0,29.89,SSE,154,3.0,18.0,61,0.00,,---,0.00,209.00,VWS V14.01,2013-04-15 21:30:00,
2013-04-15 17:33:00,68.9,55.4,29.89,SSW,194,6.0,10.0,62,0.00,,---,0.00,186.00,VWS V14.01,2013-04-15 21:33:00,
2013-04-15 17:38:00,68.8,55.3,29.89,SE,124,9.0,13.0,62,0.00,,---,0.00,135.00,VWS V14.01,2013-04-15 21:38:00,
2013-04-15 17:43:00,68.5,55.4,29.89,South,173,8.0,13.0,63,0.00,,---,0.00,158.00,VWS V14.01,2013-04-15 21:43:00,
2013-04-15 17:48:00,68.0,55.0,29.89,South,187,0.0,13.0,63,0.00,,---,0.00,156.00,VWS V14.01,2013-04-15 21:48:00,
2013-04-15 17:53:00,67.7,55.5,29.89,South,185,1.0,13.0,65,0.00,,---,0.00,190.00,VWS V14.01,2013-04-15 21:53:00,
2013-04-15 17:58:00,67.4,55.2,29.90,East,98,8.0,13.0,65,0.00,,---,0.00,128.00,VWS V14.01,2013-04-15 21:58:00,
2013-04-15 18:00:00,67.3,55.2,29.90,SSW,200,2.0,13.0,65,0.00,,---,0.00,111.00,VWS V14.01,2013-04-15 22:00:00,
2013-04-15 18:03:00,67.2,55.0,29.90,SE,143,5.0,10.0,65,0.00,,---,0.00,113.00,VWS V14.01,2013-04-15 22:03:00,
2013-04-15 18:08:00,67.0,54.9,29.90,SE,133,4.0,10.0,65,0.00,,---,0.00,93.00,VWS V14.01,2013-04-15 22:08:00,
2013-04-15 18:13:00,66.9,55.2,29.90,SSW,202,3.0,10.0,66,0.00,,---,0.00,162.00,VWS V14.01,2013-04-15 22:13:00,
2013-04-15 18:18:00,66.9,55.2,29.90,South,169,4.0,10.0,66,0.00,,---,0.00,160.00,VWS V14.01,2013-04-15 22:18:00,
2013-04-15 18:23:00,66.9,55.2,29.90,SSE,155,0.0,10.0,66,0.00,,---,0.00,135.00,VWS V14.01,2013-04-15 22:23:00,
2013-04-15 18:28:00,66.9,55.6,29.90,SSE,153,4.0,10.0,67,0.00,,---,0.00,135.00,VWS V14.01,2013-04-15 22:28:00,
2013-04-15 18:30:00,66.9,55.2,29.91,South,170,2.0,10.0,66,0.00,,---,0.00,135.00,VWS V14.01,2013-04-15 22:30:00,
2013-04-15 18:33:00,66.9,55.2,29.91,South,174,3.0,6.0,66,0.00,,---,0.00,125.00,VWS V14.01,2013-04-15 22:33:00,
2013-04-15 18:38:00,66.9,55.2,29.91,South,169,2.0,6.0,66,0.00,,---,0.00,127.00,VWS V14.01,2013-04-15 22:38:00,
2013-04-15 18:43:00,67.0,55.7,29.90,SSE,150,5.0,7.0,67,0.00,,---,0.00,95.00,VWS V14.01,2013-04-15 22:43:00,
2013-04-15 18:48:00,67.0,55.3,29.91,SE,129,3.0,7.0,66,0.00,,---,0.00,104.00,VWS V14.01,2013-04-15 22:48:00,
2013-04-15 18:53:00,67.0,55.7,29.91,South,189,3.0,7.0,67,0.00,,---,0.00,160.00,VWS V14.01,2013-04-15 22:53:00,
2013-04-15 18:58:00,67.1,55.8,29.90,South,177,5.0,7.0,67,0.00,,---,0.00,197.00,VWS V14.01,2013-04-15 22:58:00,
2013-04-15 19:00:00,67.2,55.5,29.90,SE,128,2.0,7.0,66,0.00,,---,0.00,190.00,VWS V14.01,2013-04-15 23:00:00,
2013-04-15 19:03:00,67.3,55.6,29.91,SSE,153,2.0,9.0,66,0.00,,---,0.00,174.00,VWS V14.01,2013-04-15 23:03:00,
2013-04-15 19:08:00,67.4,55.7,29.91,SE,134,5.0,9.0,66,0.00,,---,0.00,151.00,VWS V14.01,2013-04-15 23:08:00,
2013-04-15 19:13:00,67.5,55.3,29.90,SSE,162,2.0,9.0,65,0.00,,---,0.00,121.00,VWS V14.01,2013-04-15 23:13:00,
2013-04-15 19:18:00,67.5,55.3,29.90,South,177,2.0,10.0,65,0.00,,---,0.00,123.00,VWS V14.01,2013-04-15 23:18:00,
2013-04-15 19:23:00,67.4,55.2,29.91,SE,138,7.0,10.0,65,0.00,,---,0.00,58.00,VWS V14.01,2013-04-15 23:23:00,
2013-04-15 19:28:00,67.3,55.2,29.91,South,179,4.0,10.0,65,0.00,,---,0.00,77.00,VWS V14.01,2013-04-15 23:28:00,
2013-04-15 19:30:00,67.2,55.5,29.91,South,171,2.0,10.0,66,0.00,,---,0.00,72.00,VWS V14.01,2013-04-15 23:30:00,
2013-04-15 19:33:00,67.1,55.4,29.91,South,172,6.0,7.0,66,0.00,,---,0.00,60.00,VWS V14.01,2013-04-15 23:33:00,
2013-04-15 19:38:00,67.0,55.3,29.90,ESE,123,5.0,7.0,66,0.00,,---,0.00,32.00,VWS V14.01,2013-04-15 23:38:00,
2013-04-15 19:43:00,66.8,55.1,29.90,SSE,149,0.0,7.0,66,0.00,,---,0.00,28.00,VWS V14.01,2013-04-15 23:43:00,
2013-04-15 19:48:00,66.6,54.9,29.90,SSE,154,0.0,7.0,66,0.00,,---,0.00,18.00,VWS V14.01,2013-04-15 23:48:00,
2013-04-15 19:53:00,66.4,54.7,29.90,SSE,165,3.0,7.0,66,0.00,,---,0.00,11.00,VWS V14.01,2013-04-15 23:53:00,
2013-04-15 19:58:00,66.1,54.8,29.90,SSE,162,3.0,7.0,67,0.00,,---,0.00,7.00,VWS V14.01,2013-04-15 23:58:00,
2013-04-15 20:00:00,66.1,54.8,29.90,SSE,161,0.0,7.0,67,0.00,,---,0.00,5.00,VWS V14.01,2013-04-16 00:00:00,
2013-04-15 20:03:00,65.9,54.7,29.90,SSE,162,0.0,2.0,67,0.00,,---,0.00,5.00,VWS V14.01,2013-04-16 00:03:00,
2013-04-15 20:08:00,65.7,54.5,29.90,SSE,161,0.0,3.0,67,0.00,,---,0.00,0.00,VWS V14.01,2013-04-16 00:08:00,
2013-04-15 20:13:00,65.5,54.3,29.90,SSE,161,1.0,3.0,67,0.00,,---,0.00,0.00,VWS V14.01,2013-04-16 00:13:00,
2013-04-15 20:18:00,65.3,54.5,29.90,SSE,161,0.0,3.0,68,0.00,,---,0.00,0.00,VWS V14.01,2013-04-16 00:18:00,
2013-04-15 20:23:00,65.1,54.3,29.90,SE,131,2.0,3.0,68,0.00,,---,0.00,0.00,VWS V14.01,2013-04-16 00:23:00,
2013-04-15 20:29:00,64.9,54.1,29.90,ESE,105,2.0,5.0,68,0.00,,---,0.00,0.00,VWS V14.01,2013-04-16 00:29:00,
2013-04-15 20:30:00,64.8,54.0,29.91,SE,146,0.0,5.0,68,0.00,,---,0.00,0.00,VWS V14.01,2013-04-16 00:30:00,
2013-04-15 20:34:00,64.8,54.0,29.91,SE,146,1.0,1.0,68,0.00,,---,0.00,0.00,VWS V14.01,2013-04-16 00:34:00,
2013-04-15 20:39:00,64.6,54.2,29.91,SE,136,0.0,6.0,69,0.00,,---,0.00,0.00,VWS V14.01,2013-04-16 00:39:00,
2013-04-15 20:44:00,64.4,54.0,29.91,SE,143,2.0,6.0,69,0.00,,---,0.00,0.00,VWS V14.01,2013-04-16 00:44:00,
2013-04-15 20:49:00,64.3,53.9,29.91,SE,140,0.0,6.0,69,0.00,,---,0.00,0.00,VWS V14.01,2013-04-16 00:49:00,
2013-04-15 20:54:00,64.2,53.8,29.91,SE,126,1.0,6.0,69,0.00,,---,0.00,0.00,VWS V14.01,2013-04-16 00:54:00,
2013-04-15 20:59:00,64.1,53.7,29.91,ESE,108,3.0,6.0,69,0.00,,---,0.00,0.00,VWS V14.01,2013-04-16 00:59:00,
2013-04-15 21:00:00,64.0,53.6,29.91,South,171,0.0,6.0,69,0.00,,---,0.00,0.00,VWS V14.01,2013-04-16 01:00:00,
2013-04-15 21:04:00,64.0,53.6,29.90,South,182,0.0,4.0,69,0.00,,---,0.00,0.00,VWS V14.01,2013-04-16 01:04:00,
2013-04-15 21:09:00,63.8,53.8,29.91,SE,144,0.0,6.0,70,0.00,,---,0.00,0.00,VWS V14.01,2013-04-16 01:09:00,
2013-04-15 21:14:00,63.6,53.7,29.90,ESE,103,0.0,6.0,70,0.00,,---,0.00,0.00,VWS V14.01,2013-04-16 01:14:00,
2013-04-15 21:19:00,63.4,53.5,29.90,SE,146,2.0,9.0,70,0.00,,---,0.00,0.00,VWS V14.01,2013-04-16 01:19:00,
2013-04-15 21:24:00,63.3,53.4,29.91,SE,142,1.0,10.0,70,0.00,,---,0.00,0.00,VWS V14.01,2013-04-16 01:24:00,
2013-04-15 21:29:00,63.2,53.3,29.91,ESE,123,0.0,10.0,70,0.00,,---,0.00,0.00,VWS V14.01,2013-04-16 01:29:00,
2013-04-15 21:30:00,63.1,53.2,29.91,ESE,108,6.0,10.0,70,0.00,,---,0.00,0.00,VWS V14.01,2013-04-16 01:30:00,
2013-04-15 21:34:00,63.0,53.1,29.91,ESE,116,3.0,8.0,70,0.00,,---,0.00,0.00,VWS V14.01,2013-04-16 01:34:00,
2013-04-15 21:39:00,62.9,53.4,29.92,SSE,151,1.0,8.0,71,0.00,,---,0.00,0.00,VWS V14.01,2013-04-16 01:39:00,
2013-04-15 21:44:00,62.8,53.3,29.92,East,92,0.0,10.0,71,0.00,,---,0.00,0.00,VWS V14.01,2013-04-16 01:44:00,
2013-04-15 21:49:00,62.8,53.3,29.92,ESE,113,0.0,10.0,71,0.00,,---,0.00,0.00,VWS V14.01,2013-04-16 01:49:00,
2013-04-15 21:54:00,62.7,53.2,29.92,South,172,2.0,10.0,71,0.00,,---,0.00,0.00,VWS V14.01,2013-04-16 01:54:00,
2013-04-15 21:59:00,62.6,53.1,29.92,SSE,153,5.0,10.0,71,0.00,,---,0.00,0.00,VWS V14.01,2013-04-16 01:59:00,
2013-04-15 22:00:00,62.6,53.1,29.92,ESE,120,4.0,10.0,71,0.00,,---,0.00,0.00,VWS V14.01,2013-04-16 02:00:00,
2013-04-15 22:04:00,62.6,53.1,29.93,SE,138,0.0,6.0,71,0.00,,---,0.00,0.00,VWS V14.01,2013-04-16 02:04:00,
2013-04-15 22:09:00,62.5,53.0,29.92,SSE,147,3.0,11.0,71,0.00,,---,0.00,0.00,VWS V14.01,2013-04-16 02:09:00,
2013-04-15 22:14:00,62.5,53.0,29.92,SSE,153,2.0,11.0,71,0.00,,---,0.00,0.00,VWS V14.01,2013-04-16 02:14:00,
2013-04-15 22:19:00,62.4,52.9,29.92,ESE,110,1.0,11.0,71,0.00,,---,0.00,0.00,VWS V14.01,2013-04-16 02:19:00,
2013-04-15 22:24:00,62.2,52.7,29.92,SE,140,4.0,11.0,71,0.00,,---,0.00,0.00,VWS V14.01,2013-04-16 02:24:00,
2013-04-15 22:29:00,62.0,52.5,29.93,SSE,147,0.0,11.0,71,0.00,,---,0.00,0.00,VWS V14.01,2013-04-16 02:29:00,
2013-04-15 22:30:00,62.0,52.5,29.93,SE,138,0.0,11.0,71,0.00,,---,0.00,0.00,VWS V14.01,2013-04-16 02:30:00,
2013-04-15 22:34:00,61.9,52.8,29.93,SSE,163,0.0,3.0,72,0.00,,---,0.00,0.00,VWS V14.01,2013-04-16 02:34:00,
2013-04-15 22:39:00,61.7,52.6,29.93,SE,136,1.0,9.0,72,0.00,,---,0.00,0.00,VWS V14.01,2013-04-16 02:39:00,
2013-04-15 22:44:00,61.6,52.5,29.93,SSE,161,1.0,10.0,72,0.00,,---,0.00,0.00,VWS V14.01,2013-04-16 02:44:00,
2013-04-15 22:49:00,61.6,52.5,29.93,SE,142,0.0,10.0,72,0.00,,---,0.00,0.00,VWS V14.01,2013-04-16 02:49:00,
2013-04-15 22:54:00,61.6,52.1,29.93,SE,136,0.0,10.0,71,0.00,,---,0.00,0.00,VWS V14.01,2013-04-16 02:54:00,
2013-04-15 22:59:00,61.5,52.0,29.93,SE,144,0.0,10.0,71,0.00,,---,0.00,0.00,VWS V14.01,2013-04-16 02:59:00,
2013-04-15 23:00:00,61.4,51.9,29.93,ESE,105,0.0,10.0,71,0.00,,---,0.00,0.00,VWS V14.01,2013-04-16 03:00:00,
2013-04-15 23:04:00,61.4,52.3,29.92,SE,127,0.0,7.0,72,0.00,,---,0.00,0.00,VWS V14.01,2013-04-16 03:04:00,
2013-04-15 23:09:00,61.3,52.2,29.92,SE,126,3.0,7.0,72,0.00,,---,0.00,0.00,VWS V14.01,2013-04-16 03:09:00,
2013-04-15 23:14:00,61.3,52.2,29.92,SSE,160,2.0,11.0,72,0.00,,---,0.00,0.00,VWS V14.01,2013-04-16 03:14:00,
2013-04-15 23:19:00,61.2,52.1,29.93,SSW,192,2.0,11.0,72,0.00,,---,0.00,0.00,VWS V14.01,2013-04-16 03:19:00,
2013-04-15 23:24:00,61.2,52.1,29.93,ESE,107,2.0,11.0,72,0.00,,---,0.00,0.00,VWS V14.01,2013-04-16 03:24:00,
2013-04-15 23:29:00,61.1,52.0,29.93,South,177,0.0,11.0,72,0.00,,---,0.00,0.00,VWS V14.01,2013-04-16 03:29:00,
2013-04-15 23:30:00,61.1,52.0,29.93,SSE,150,3.0,11.0,72,0.00,,---,0.00,0.00,VWS V14.01,2013-04-16 03:30:00,
2013-04-15 23:34:00,61.1,52.0,29.93,ESE,123,5.0,10.0,72,0.00,,---,0.00,0.00,VWS V14.01,2013-04-16 03:34:00,
2013-04-15 23:39:00,61.0,51.9,29.93,SSE,147,0.0,10.0,72,0.00,,---,0.00,0.00,VWS V14.01,2013-04-16 03:39:00,
2013-04-15 23:44:00,61.0,51.9,29.93,SSE,155,0.0,10.0,72,0.00,,---,0.00,0.00,VWS V14.01,2013-04-16 03:44:00,
2013-04-15 23:49:00,60.9,51.8,29.93,South,189,4.0,10.0,72,0.00,,---,0.00,0.00,VWS V14.01,2013-04-16 03:49:00,
2013-04-15 23:54:00,60.8,51.7,29.93,SSE,148,6.0,10.0,72,0.00,,---,0.00,0.00,VWS V14.01,2013-04-16 03:54:00,
2013-04-15 23:59:00,60.8,51.7,29.92,SSE,157,1.0,10.0,72,0.00,,---,0.00,0.00,VWS V14.01,2013-04-16 03:59:00,